sensor_id;sensor_type;location;lat;lon;timestamp;P1;durP1;ratioP1;P2;durP2;ratioP2
65757;SDS011;52495;52.208;5.158;2023-05-07T00:00:37;33.78;;;24.38;;
65757;SDS011;52495;52.208;5.158;2023-05-07T00:03:05;32.03;;;25.50;;
65757;SDS011;52495;52.208;5.158;2023-05-07T00:05:32;31.65;;;25.13;;
65757;SDS011;52495;52.208;5.158;2023-05-07T00:07:58;30.05;;;23.83;;
65757;SDS011;52495;52.208;5.158;2023-05-07T00:10:25;32.50;;;25.42;;
65757;SDS011;52495;52.208;5.158;2023-05-07T00:12:53;28.88;;;23.23;;
65757;SDS011;52495;52.208;5.158;2023-05-07T00:15:20;29.95;;;24.15;;
65757;SDS011;52495;52.208;5.158;2023-05-07T00:17:47;30.27;;;21.80;;
65757;SDS011;52495;52.208;5.158;2023-05-07T00:20:14;30.00;;;22.05;;
65757;SDS011;52495;52.208;5.158;2023-05-07T00:22:41;27.50;;;21.80;;
65757;SDS011;52495;52.208;5.158;2023-05-07T00:25:07;27.13;;;19.30;;
65757;SDS011;52495;52.208;5.158;2023-05-07T00:27:35;22.30;;;19.42;;
65757;SDS011;52495;52.208;5.158;2023-05-07T00:30:04;25.90;;;20.05;;
65757;SDS011;52495;52.208;5.158;2023-05-07T00:32:31;21.63;;;19.23;;
65757;SDS011;52495;52.208;5.158;2023-05-07T00:34:58;22.02;;;18.73;;
65757;SDS011;52495;52.208;5.158;2023-05-07T00:37:25;22.63;;;19.67;;
65757;SDS011;52495;52.208;5.158;2023-05-07T00:39:56;23.67;;;19.30;;
65757;SDS011;52495;52.208;5.158;2023-05-07T00:42:32;24.45;;;19.05;;
65757;SDS011;52495;52.208;5.158;2023-05-07T00:44:59;20.02;;;16.75;;
65757;SDS011;52495;52.208;5.158;2023-05-07T00:47:28;23.45;;;16.80;;
65757;SDS011;52495;52.208;5.158;2023-05-07T00:49:57;21.05;;;17.30;;
65757;SDS011;52495;52.208;5.158;2023-05-07T00:52:25;20.35;;;17.23;;
65757;SDS011;52495;52.208;5.158;2023-05-07T00:54:53;18.75;;;16.70;;
65757;SDS011;52495;52.208;5.158;2023-05-07T00:57:28;20.95;;;17.10;;
65757;SDS011;52495;52.208;5.158;2023-05-07T00:59:55;18.95;;;16.77;;
65757;SDS011;52495;52.208;5.158;2023-05-07T01:02:22;18.05;;;15.70;;
65757;SDS011;52495;52.208;5.158;2023-05-07T01:04:50;18.17;;;16.27;;
65757;SDS011;52495;52.208;5.158;2023-05-07T01:07:20;19.35;;;17.27;;
65757;SDS011;52495;52.208;5.158;2023-05-07T01:09:47;20.95;;;16.85;;
65757;SDS011;52495;52.208;5.158;2023-05-07T01:12:14;19.67;;;16.13;;
65757;SDS011;52495;52.208;5.158;2023-05-07T01:14:42;20.55;;;16.92;;
65757;SDS011;52495;52.208;5.158;2023-05-07T01:17:11;18.80;;;16.58;;
65757;SDS011;52495;52.208;5.158;2023-05-07T01:19:38;19.70;;;17.70;;
65757;SDS011;52495;52.208;5.158;2023-05-07T01:22:09;19.00;;;16.58;;
65757;SDS011;52495;52.208;5.158;2023-05-07T01:24:50;20.75;;;18.15;;
65757;SDS011;52495;52.208;5.158;2023-05-07T01:27:21;19.70;;;17.60;;
65757;SDS011;52495;52.208;5.158;2023-05-07T01:29:51;17.85;;;15.68;;
65757;SDS011;52495;52.208;5.158;2023-05-07T01:32:18;19.65;;;16.98;;
65757;SDS011;52495;52.208;5.158;2023-05-07T01:34:50;18.35;;;16.35;;
65757;SDS011;52495;52.208;5.158;2023-05-07T01:37:19;18.40;;;16.40;;
65757;SDS011;52495;52.208;5.158;2023-05-07T01:39:58;17.83;;;15.45;;
65757;SDS011;52495;52.208;5.158;2023-05-07T01:42:27;17.92;;;15.73;;
65757;SDS011;52495;52.208;5.158;2023-05-07T01:44:59;20.25;;;16.48;;
65757;SDS011;52495;52.208;5.158;2023-05-07T01:47:29;19.10;;;17.20;;
65757;SDS011;52495;52.208;5.158;2023-05-07T01:49:59;21.42;;;15.65;;
65757;SDS011;52495;52.208;5.158;2023-05-07T01:52:27;22.27;;;16.88;;
65757;SDS011;52495;52.208;5.158;2023-05-07T01:54:58;18.00;;;16.10;;
65757;SDS011;52495;52.208;5.158;2023-05-07T01:57:25;17.35;;;15.48;;
65757;SDS011;52495;52.208;5.158;2023-05-07T01:59:54;23.48;;;18.08;;
65757;SDS011;52495;52.208;5.158;2023-05-07T02:02:21;18.08;;;15.35;;
65757;SDS011;52495;52.208;5.158;2023-05-07T02:04:49;17.13;;;14.70;;
65757;SDS011;52495;52.208;5.158;2023-05-07T02:07:17;17.95;;;16.10;;
65757;SDS011;52495;52.208;5.158;2023-05-07T02:09:46;17.15;;;14.90;;
65757;SDS011;52495;52.208;5.158;2023-05-07T02:12:20;22.00;;;16.80;;
65757;SDS011;52495;52.208;5.158;2023-05-07T02:14:48;17.63;;;15.45;;
65757;SDS011;52495;52.208;5.158;2023-05-07T02:17:16;17.95;;;14.88;;
65757;SDS011;52495;52.208;5.158;2023-05-07T02:19:46;18.40;;;14.55;;
65757;SDS011;52495;52.208;5.158;2023-05-07T02:22:13;19.17;;;13.15;;
65757;SDS011;52495;52.208;5.158;2023-05-07T02:24:40;15.13;;;13.48;;
65757;SDS011;52495;52.208;5.158;2023-05-07T02:27:07;17.98;;;12.52;;
65757;SDS011;52495;52.208;5.158;2023-05-07T02:29:37;15.05;;;12.05;;
65757;SDS011;52495;52.208;5.158;2023-05-07T02:32:06;15.75;;;13.25;;
65757;SDS011;52495;52.208;5.158;2023-05-07T02:34:33;13.52;;;12.10;;
65757;SDS011;52495;52.208;5.158;2023-05-07T02:37:00;14.63;;;11.27;;
65757;SDS011;52495;52.208;5.158;2023-05-07T02:39:27;13.20;;;11.43;;
65757;SDS011;52495;52.208;5.158;2023-05-07T02:42:03;17.30;;;13.93;;
65757;SDS011;52495;52.208;5.158;2023-05-07T02:44:31;15.20;;;13.30;;
65757;SDS011;52495;52.208;5.158;2023-05-07T02:46:59;17.50;;;12.82;;
65757;SDS011;52495;52.208;5.158;2023-05-07T02:49:27;15.93;;;13.68;;
65757;SDS011;52495;52.208;5.158;2023-05-07T02:51:54;14.77;;;13.20;;
65757;SDS011;52495;52.208;5.158;2023-05-07T02:54:26;17.75;;;13.57;;
65757;SDS011;52495;52.208;5.158;2023-05-07T02:56:55;17.35;;;13.98;;
65757;SDS011;52495;52.208;5.158;2023-05-07T02:59:24;13.55;;;11.02;;
65757;SDS011;52495;52.208;5.158;2023-05-07T03:01:57;16.10;;;12.85;;
65757;SDS011;52495;52.208;5.158;2023-05-07T03:04:29;16.00;;;13.90;;
65757;SDS011;52495;52.208;5.158;2023-05-07T03:06:56;17.40;;;14.70;;
65757;SDS011;52495;52.208;5.158;2023-05-07T03:09:23;15.07;;;13.55;;
65757;SDS011;52495;52.208;5.158;2023-05-07T03:11:50;17.35;;;13.63;;
65757;SDS011;52495;52.208;5.158;2023-05-07T03:14:16;15.65;;;14.05;;
65757;SDS011;52495;52.208;5.158;2023-05-07T03:16:46;17.52;;;14.85;;
65757;SDS011;52495;52.208;5.158;2023-05-07T03:19:14;16.85;;;14.70;;
65757;SDS011;52495;52.208;5.158;2023-05-07T03:21:41;16.15;;;14.13;;
65757;SDS011;52495;52.208;5.158;2023-05-07T03:24:08;21.00;;;13.80;;
65757;SDS011;52495;52.208;5.158;2023-05-07T03:26:35;19.02;;;15.77;;
65757;SDS011;52495;52.208;5.158;2023-05-07T03:29:02;17.60;;;15.73;;
65757;SDS011;52495;52.208;5.158;2023-05-07T03:31:29;16.73;;;14.98;;
65757;SDS011;52495;52.208;5.158;2023-05-07T03:33:56;20.67;;;16.35;;
65757;SDS011;52495;52.208;5.158;2023-05-07T03:36:26;19.40;;;15.98;;
65757;SDS011;52495;52.208;5.158;2023-05-07T03:38:54;21.92;;;15.65;;
65757;SDS011;52495;52.208;5.158;2023-05-07T03:41:24;19.67;;;15.88;;
65757;SDS011;52495;52.208;5.158;2023-05-07T03:43:51;19.58;;;17.13;;
65757;SDS011;52495;52.208;5.158;2023-05-07T03:46:18;21.83;;;17.10;;
65757;SDS011;52495;52.208;5.158;2023-05-07T03:48:45;20.25;;;16.77;;
65757;SDS011;52495;52.208;5.158;2023-05-07T03:51:13;21.65;;;17.08;;
65757;SDS011;52495;52.208;5.158;2023-05-07T03:53:42;21.77;;;17.42;;
65757;SDS011;52495;52.208;5.158;2023-05-07T03:56:09;19.95;;;17.85;;
65757;SDS011;52495;52.208;5.158;2023-05-07T03:58:44;21.85;;;17.63;;
65757;SDS011;52495;52.208;5.158;2023-05-07T04:01:15;22.02;;;18.50;;
65757;SDS011;52495;52.208;5.158;2023-05-07T04:03:45;22.30;;;19.25;;
65757;SDS011;52495;52.208;5.158;2023-05-07T04:06:12;21.42;;;19.10;;
65757;SDS011;52495;52.208;5.158;2023-05-07T04:08:44;20.95;;;18.35;;
65757;SDS011;52495;52.208;5.158;2023-05-07T04:11:12;21.50;;;19.20;;
65757;SDS011;52495;52.208;5.158;2023-05-07T04:13:41;25.67;;;20.58;;
65757;SDS011;52495;52.208;5.158;2023-05-07T04:16:08;24.40;;;20.27;;
65757;SDS011;52495;52.208;5.158;2023-05-07T04:18:36;21.98;;;19.63;;
65757;SDS011;52495;52.208;5.158;2023-05-07T04:21:04;21.75;;;19.40;;
65757;SDS011;52495;52.208;5.158;2023-05-07T04:23:35;22.77;;;19.35;;
65757;SDS011;52495;52.208;5.158;2023-05-07T04:26:08;18.45;;;16.42;;
65757;SDS011;52495;52.208;5.158;2023-05-07T04:28:39;20.30;;;17.75;;
65757;SDS011;52495;52.208;5.158;2023-05-07T04:31:06;20.40;;;16.40;;
65757;SDS011;52495;52.208;5.158;2023-05-07T04:33:44;22.63;;;19.50;;
65757;SDS011;52495;52.208;5.158;2023-05-07T04:36:13;20.63;;;18.42;;
65757;SDS011;52495;52.208;5.158;2023-05-07T04:38:47;22.30;;;18.45;;
65757;SDS011;52495;52.208;5.158;2023-05-07T04:41:17;21.30;;;18.00;;
65757;SDS011;52495;52.208;5.158;2023-05-07T04:43:44;20.83;;;17.45;;
65757;SDS011;52495;52.208;5.158;2023-05-07T04:46:13;19.30;;;16.55;;
65757;SDS011;52495;52.208;5.158;2023-05-07T04:48:41;18.30;;;16.40;;
65757;SDS011;52495;52.208;5.158;2023-05-07T04:51:08;23.50;;;18.58;;
65757;SDS011;52495;52.208;5.158;2023-05-07T04:53:35;21.77;;;19.58;;
65757;SDS011;52495;52.208;5.158;2023-05-07T04:56:02;19.83;;;17.73;;
65757;SDS011;52495;52.208;5.158;2023-05-07T04:58:37;20.10;;;17.88;;
65757;SDS011;52495;52.208;5.158;2023-05-07T05:01:04;21.75;;;18.50;;
65757;SDS011;52495;52.208;5.158;2023-05-07T05:03:31;23.67;;;19.33;;
65757;SDS011;52495;52.208;5.158;2023-05-07T05:05:58;21.13;;;18.23;;
65757;SDS011;52495;52.208;5.158;2023-05-07T05:08:32;19.65;;;17.65;;
65757;SDS011;52495;52.208;5.158;2023-05-07T05:11:00;21.38;;;18.13;;
65757;SDS011;52495;52.208;5.158;2023-05-07T05:13:28;20.35;;;17.63;;
65757;SDS011;52495;52.208;5.158;2023-05-07T05:15:56;19.92;;;17.83;;
65757;SDS011;52495;52.208;5.158;2023-05-07T05:18:25;18.67;;;15.75;;
65757;SDS011;52495;52.208;5.158;2023-05-07T05:20:52;18.17;;;16.13;;
65757;SDS011;52495;52.208;5.158;2023-05-07T05:23:18;20.98;;;16.70;;
65757;SDS011;52495;52.208;5.158;2023-05-07T05:25:45;19.33;;;16.88;;
65757;SDS011;52495;52.208;5.158;2023-05-07T05:28:14;17.83;;;14.90;;
65757;SDS011;52495;52.208;5.158;2023-05-07T05:30:41;19.98;;;15.32;;
65757;SDS011;52495;52.208;5.158;2023-05-07T05:33:09;20.40;;;14.57;;
65757;SDS011;52495;52.208;5.158;2023-05-07T05:35:37;16.55;;;14.02;;
65757;SDS011;52495;52.208;5.158;2023-05-07T05:38:08;15.25;;;13.65;;
65757;SDS011;52495;52.208;5.158;2023-05-07T05:40:35;16.42;;;13.38;;
65757;SDS011;52495;52.208;5.158;2023-05-07T05:43:02;16.52;;;13.50;;
65757;SDS011;52495;52.208;5.158;2023-05-07T05:45:30;16.48;;;14.77;;
65757;SDS011;52495;52.208;5.158;2023-05-07T05:47:56;16.02;;;14.40;;
65757;SDS011;52495;52.208;5.158;2023-05-07T05:50:25;18.25;;;14.82;;
65757;SDS011;52495;52.208;5.158;2023-05-07T05:52:53;17.55;;;13.80;;
65757;SDS011;52495;52.208;5.158;2023-05-07T05:55:21;18.35;;;14.10;;
65757;SDS011;52495;52.208;5.158;2023-05-07T05:57:48;16.10;;;13.43;;
65757;SDS011;52495;52.208;5.158;2023-05-07T06:00:15;14.80;;;13.20;;
65757;SDS011;52495;52.208;5.158;2023-05-07T06:02:45;18.00;;;13.38;;
65757;SDS011;52495;52.208;5.158;2023-05-07T06:05:18;16.75;;;15.02;;
65757;SDS011;52495;52.208;5.158;2023-05-07T06:07:48;17.38;;;14.73;;
65757;SDS011;52495;52.208;5.158;2023-05-07T06:10:15;17.15;;;14.95;;
65757;SDS011;52495;52.208;5.158;2023-05-07T06:12:42;20.67;;;15.98;;
65757;SDS011;52495;52.208;5.158;2023-05-07T06:15:09;20.77;;;15.88;;
65757;SDS011;52495;52.208;5.158;2023-05-07T06:17:37;18.67;;;16.48;;
65757;SDS011;52495;52.208;5.158;2023-05-07T06:20:05;16.92;;;14.23;;
65757;SDS011;52495;52.208;5.158;2023-05-07T06:22:33;19.60;;;14.25;;
65757;SDS011;52495;52.208;5.158;2023-05-07T06:25:02;19.67;;;15.63;;
65757;SDS011;52495;52.208;5.158;2023-05-07T06:27:29;17.52;;;14.93;;
65757;SDS011;52495;52.208;5.158;2023-05-07T06:29:56;17.95;;;15.48;;
65757;SDS011;52495;52.208;5.158;2023-05-07T06:32:24;17.45;;;15.45;;
65757;SDS011;52495;52.208;5.158;2023-05-07T06:34:51;18.45;;;14.90;;
65757;SDS011;52495;52.208;5.158;2023-05-07T06:37:18;19.88;;;16.63;;
65757;SDS011;52495;52.208;5.158;2023-05-07T06:39:59;20.60;;;17.08;;
65757;SDS011;52495;52.208;5.158;2023-05-07T06:42:29;18.02;;;16.13;;
65757;SDS011;52495;52.208;5.158;2023-05-07T06:44:59;19.08;;;16.85;;
65757;SDS011;52495;52.208;5.158;2023-05-07T06:47:29;20.95;;;16.13;;
65757;SDS011;52495;52.208;5.158;2023-05-07T06:49:56;21.23;;;17.67;;
65757;SDS011;52495;52.208;5.158;2023-05-07T06:52:26;31.00;;;17.20;;
65757;SDS011;52495;52.208;5.158;2023-05-07T06:54:53;19.67;;;17.58;;
65757;SDS011;52495;52.208;5.158;2023-05-07T06:57:22;21.98;;;17.73;;
65757;SDS011;52495;52.208;5.158;2023-05-07T06:59:50;22.40;;;17.60;;
65757;SDS011;52495;52.208;5.158;2023-05-07T07:02:17;23.17;;;16.23;;
65757;SDS011;52495;52.208;5.158;2023-05-07T07:04:45;20.30;;;17.08;;
65757;SDS011;52495;52.208;5.158;2023-05-07T07:07:13;22.20;;;18.42;;
65757;SDS011;52495;52.208;5.158;2023-05-07T07:09:42;21.40;;;18.05;;
65757;SDS011;52495;52.208;5.158;2023-05-07T07:12:10;21.00;;;16.50;;
65757;SDS011;52495;52.208;5.158;2023-05-07T07:14:38;18.80;;;16.80;;
65757;SDS011;52495;52.208;5.158;2023-05-07T07:17:07;19.77;;;15.05;;
65757;SDS011;52495;52.208;5.158;2023-05-07T07:19:35;23.08;;;18.10;;
65757;SDS011;52495;52.208;5.158;2023-05-07T07:22:03;21.13;;;18.27;;
65757;SDS011;52495;52.208;5.158;2023-05-07T07:24:31;19.58;;;17.40;;
65757;SDS011;52495;52.208;5.158;2023-05-07T07:27:02;18.77;;;16.88;;
65757;SDS011;52495;52.208;5.158;2023-05-07T07:29:30;19.98;;;17.88;;
65757;SDS011;52495;52.208;5.158;2023-05-07T07:31:57;21.50;;;18.60;;
65757;SDS011;52495;52.208;5.158;2023-05-07T07:34:26;20.83;;;18.35;;
65757;SDS011;52495;52.208;5.158;2023-05-07T07:36:52;23.63;;;18.73;;
65757;SDS011;52495;52.208;5.158;2023-05-07T07:39:19;19.50;;;16.80;;
65757;SDS011;52495;52.208;5.158;2023-05-07T07:41:49;18.38;;;16.48;;
65757;SDS011;52495;52.208;5.158;2023-05-07T07:44:17;19.63;;;17.60;;
65757;SDS011;52495;52.208;5.158;2023-05-07T07:46:49;20.55;;;18.35;;
65757;SDS011;52495;52.208;5.158;2023-05-07T07:49:16;20.27;;;17.65;;
65757;SDS011;52495;52.208;5.158;2023-05-07T07:51:45;20.73;;;18.52;;
65757;SDS011;52495;52.208;5.158;2023-05-07T07:54:12;20.63;;;18.42;;
65757;SDS011;52495;52.208;5.158;2023-05-07T07:56:39;19.10;;;16.48;;
65757;SDS011;52495;52.208;5.158;2023-05-07T07:59:08;19.52;;;17.48;;
65757;SDS011;52495;52.208;5.158;2023-05-07T08:01:37;20.67;;;18.40;;
65757;SDS011;52495;52.208;5.158;2023-05-07T08:04:04;19.65;;;17.60;;
65757;SDS011;52495;52.208;5.158;2023-05-07T08:06:34;21.92;;;19.63;;
65757;SDS011;52495;52.208;5.158;2023-05-07T08:09:03;21.85;;;19.35;;
65757;SDS011;52495;52.208;5.158;2023-05-07T08:11:30;23.35;;;19.98;;
65757;SDS011;52495;52.208;5.158;2023-05-07T08:13:57;20.45;;;18.00;;
65757;SDS011;52495;52.208;5.158;2023-05-07T08:16:28;18.92;;;15.40;;
65757;SDS011;52495;52.208;5.158;2023-05-07T08:18:55;15.80;;;13.93;;
65757;SDS011;52495;52.208;5.158;2023-05-07T08:21:21;21.42;;;19.13;;
65757;SDS011;52495;52.208;5.158;2023-05-07T08:23:48;20.58;;;18.38;;
65757;SDS011;52495;52.208;5.158;2023-05-07T08:26:17;21.73;;;19.58;;
65757;SDS011;52495;52.208;5.158;2023-05-07T08:28:44;22.05;;;18.83;;
65757;SDS011;52495;52.208;5.158;2023-05-07T08:31:11;20.08;;;17.98;;
65757;SDS011;52495;52.208;5.158;2023-05-07T08:33:40;18.83;;;16.90;;
65757;SDS011;52495;52.208;5.158;2023-05-07T08:36:07;19.42;;;16.88;;
65757;SDS011;52495;52.208;5.158;2023-05-07T08:38:34;20.77;;;18.67;;
65757;SDS011;52495;52.208;5.158;2023-05-07T08:41:01;22.58;;;18.80;;
65757;SDS011;52495;52.208;5.158;2023-05-07T08:43:31;19.50;;;15.63;;
65757;SDS011;52495;52.208;5.158;2023-05-07T08:46:00;16.83;;;14.65;;
65757;SDS011;52495;52.208;5.158;2023-05-07T08:48:31;19.88;;;17.23;;
65757;SDS011;52495;52.208;5.158;2023-05-07T08:51:08;18.45;;;16.48;;
65757;SDS011;52495;52.208;5.158;2023-05-07T08:53:39;19.35;;;16.08;;
65757;SDS011;52495;52.208;5.158;2023-05-07T08:56:10;16.13;;;13.73;;
65757;SDS011;52495;52.208;5.158;2023-05-07T08:58:39;17.23;;;14.60;;
65757;SDS011;52495;52.208;5.158;2023-05-07T09:01:07;16.30;;;14.57;;
65757;SDS011;52495;52.208;5.158;2023-05-07T09:03:36;20.85;;;17.50;;
65757;SDS011;52495;52.208;5.158;2023-05-07T09:06:04;20.08;;;16.92;;
65757;SDS011;52495;52.208;5.158;2023-05-07T09:08:32;15.25;;;13.20;;
65757;SDS011;52495;52.208;5.158;2023-05-07T09:11:02;12.35;;;11.15;;
65757;SDS011;52495;52.208;5.158;2023-05-07T09:13:29;15.43;;;12.32;;
65757;SDS011;52495;52.208;5.158;2023-05-07T09:16:01;15.30;;;13.15;;
65757;SDS011;52495;52.208;5.158;2023-05-07T09:18:40;13.88;;;12.48;;
65757;SDS011;52495;52.208;5.158;2023-05-07T09:21:10;14.68;;;13.18;;
65757;SDS011;52495;52.208;5.158;2023-05-07T09:23:37;14.32;;;11.63;;
65757;SDS011;52495;52.208;5.158;2023-05-07T09:26:06;12.70;;;9.88;;
65757;SDS011;52495;52.208;5.158;2023-05-07T09:28:40;14.47;;;12.23;;
65757;SDS011;52495;52.208;5.158;2023-05-07T09:31:11;16.17;;;13.18;;
65757;SDS011;52495;52.208;5.158;2023-05-07T09:33:39;9.70;;;7.90;;
65757;SDS011;52495;52.208;5.158;2023-05-07T09:36:08;13.93;;;10.93;;
65757;SDS011;52495;52.208;5.158;2023-05-07T09:38:38;10.15;;;8.95;;
65757;SDS011;52495;52.208;5.158;2023-05-07T09:41:05;14.38;;;12.27;;
65757;SDS011;52495;52.208;5.158;2023-05-07T09:43:39;11.68;;;10.48;;
65757;SDS011;52495;52.208;5.158;2023-05-07T09:46:09;12.50;;;11.07;;
65757;SDS011;52495;52.208;5.158;2023-05-07T09:48:45;13.00;;;10.27;;
65757;SDS011;52495;52.208;5.158;2023-05-07T09:51:15;10.75;;;9.43;;
65757;SDS011;52495;52.208;5.158;2023-05-07T09:53:48;12.02;;;10.20;;
65757;SDS011;52495;52.208;5.158;2023-05-07T09:56:19;12.98;;;10.88;;
65757;SDS011;52495;52.208;5.158;2023-05-07T09:58:46;13.68;;;10.63;;
65757;SDS011;52495;52.208;5.158;2023-05-07T10:01:16;12.32;;;10.23;;
65757;SDS011;52495;52.208;5.158;2023-05-07T10:03:44;11.70;;;8.98;;
65757;SDS011;52495;52.208;5.158;2023-05-07T10:06:13;10.10;;;8.10;;
65757;SDS011;52495;52.208;5.158;2023-05-07T10:08:41;9.85;;;8.85;;
65757;SDS011;52495;52.208;5.158;2023-05-07T10:11:09;11.38;;;10.20;;
65757;SDS011;52495;52.208;5.158;2023-05-07T10:13:36;12.23;;;10.02;;
65757;SDS011;52495;52.208;5.158;2023-05-07T10:16:06;10.63;;;8.50;;
65757;SDS011;52495;52.208;5.158;2023-05-07T10:18:41;12.07;;;9.48;;
65757;SDS011;52495;52.208;5.158;2023-05-07T10:21:15;10.98;;;9.40;;
65757;SDS011;52495;52.208;5.158;2023-05-07T10:23:45;12.35;;;8.98;;
65757;SDS011;52495;52.208;5.158;2023-05-07T10:26:14;11.07;;;9.10;;
65757;SDS011;52495;52.208;5.158;2023-05-07T10:28:44;11.60;;;8.63;;
65757;SDS011;52495;52.208;5.158;2023-05-07T10:31:18;9.68;;;7.75;;
65757;SDS011;52495;52.208;5.158;2023-05-07T10:34:08;7.20;;;5.75;;
65757;SDS011;52495;52.208;5.158;2023-05-07T10:36:37;11.43;;;8.50;;
65757;SDS011;52495;52.208;5.158;2023-05-07T10:39:05;10.75;;;7.50;;
65757;SDS011;52495;52.208;5.158;2023-05-07T10:41:33;10.85;;;9.13;;
65757;SDS011;52495;52.208;5.158;2023-05-07T10:44:04;9.85;;;8.40;;
65757;SDS011;52495;52.208;5.158;2023-05-07T10:46:33;12.45;;;11.15;;
65757;SDS011;52495;52.208;5.158;2023-05-07T10:49:16;10.75;;;9.02;;
65757;SDS011;52495;52.208;5.158;2023-05-07T10:54:43;11.15;;;9.07;;
65757;SDS011;52495;52.208;5.158;2023-05-07T10:57:32;10.27;;;8.52;;
65757;SDS011;52495;52.208;5.158;2023-05-07T11:03:11;9.77;;;6.78;;
65757;SDS011;52495;52.208;5.158;2023-05-07T11:06:12;10.52;;;6.03;;
65757;SDS011;52495;52.208;5.158;2023-05-07T11:08:55;7.78;;;5.80;;
65757;SDS011;52495;52.208;5.158;2023-05-07T11:11:43;7.20;;;4.95;;
65757;SDS011;52495;52.208;5.158;2023-05-07T11:14:14;7.88;;;4.78;;
65757;SDS011;52495;52.208;5.158;2023-05-07T11:17:16;8.20;;;3.67;;
65757;SDS011;52495;52.208;5.158;2023-05-07T11:19:49;7.70;;;3.03;;
65757;SDS011;52495;52.208;5.158;2023-05-07T11:22:38;5.65;;;2.55;;
65757;SDS011;52495;52.208;5.158;2023-05-07T11:25:16;5.03;;;2.47;;
65757;SDS011;52495;52.208;5.158;2023-05-07T11:27:44;5.57;;;3.05;;
65757;SDS011;52495;52.208;5.158;2023-05-07T11:30:16;8.43;;;3.15;;
65757;SDS011;52495;52.208;5.158;2023-05-07T11:32:48;7.47;;;4.13;;
65757;SDS011;52495;52.208;5.158;2023-05-07T11:35:16;8.05;;;4.80;;
65757;SDS011;52495;52.208;5.158;2023-05-07T11:37:48;8.10;;;3.95;;
65757;SDS011;52495;52.208;5.158;2023-05-07T11:40:16;6.90;;;3.92;;
65757;SDS011;52495;52.208;5.158;2023-05-07T11:42:42;7.47;;;3.50;;
65757;SDS011;52495;52.208;5.158;2023-05-07T11:45:09;7.05;;;3.40;;
65757;SDS011;52495;52.208;5.158;2023-05-07T11:47:36;7.07;;;3.38;;
65757;SDS011;52495;52.208;5.158;2023-05-07T11:50:06;6.88;;;4.15;;
65757;SDS011;52495;52.208;5.158;2023-05-07T11:52:35;4.60;;;2.47;;
65757;SDS011;52495;52.208;5.158;2023-05-07T11:55:06;7.80;;;3.13;;
65757;SDS011;52495;52.208;5.158;2023-05-07T11:57:33;5.35;;;3.10;;
65757;SDS011;52495;52.208;5.158;2023-05-07T12:00:00;5.03;;;2.83;;
65757;SDS011;52495;52.208;5.158;2023-05-07T12:02:37;4.40;;;2.35;;
65757;SDS011;52495;52.208;5.158;2023-05-07T12:05:05;3.83;;;2.10;;
65757;SDS011;52495;52.208;5.158;2023-05-07T12:07:32;8.00;;;2.65;;
65757;SDS011;52495;52.208;5.158;2023-05-07T12:10:03;7.13;;;2.65;;
65757;SDS011;52495;52.208;5.158;2023-05-07T12:12:37;4.80;;;2.25;;
65757;SDS011;52495;52.208;5.158;2023-05-07T12:15:05;6.30;;;2.53;;
65757;SDS011;52495;52.208;5.158;2023-05-07T12:17:32;7.35;;;2.50;;
65757;SDS011;52495;52.208;5.158;2023-05-07T12:19:59;5.90;;;2.67;;
65757;SDS011;52495;52.208;5.158;2023-05-07T12:22:26;3.58;;;2.33;;
65757;SDS011;52495;52.208;5.158;2023-05-07T12:24:56;4.82;;;2.30;;
65757;SDS011;52495;52.208;5.158;2023-05-07T12:27:25;5.53;;;3.03;;
65757;SDS011;52495;52.208;5.158;2023-05-07T12:29:52;4.38;;;2.78;;
65757;SDS011;52495;52.208;5.158;2023-05-07T12:32:20;7.15;;;3.60;;
65757;SDS011;52495;52.208;5.158;2023-05-07T12:34:49;4.85;;;2.88;;
65757;SDS011;52495;52.208;5.158;2023-05-07T12:37:22;6.20;;;2.90;;
65757;SDS011;52495;52.208;5.158;2023-05-07T12:39:59;6.45;;;3.20;;
65757;SDS011;52495;52.208;5.158;2023-05-07T12:42:34;6.47;;;3.83;;
65757;SDS011;52495;52.208;5.158;2023-05-07T12:45:07;8.05;;;3.58;;
65757;SDS011;52495;52.208;5.158;2023-05-07T12:47:34;8.95;;;3.47;;
65757;SDS011;52495;52.208;5.158;2023-05-07T12:50:01;5.20;;;3.03;;
65757;SDS011;52495;52.208;5.158;2023-05-07T12:52:31;7.22;;;3.80;;
65757;SDS011;52495;52.208;5.158;2023-05-07T12:55:03;7.03;;;3.88;;
65757;SDS011;52495;52.208;5.158;2023-05-07T13:00:06;7.75;;;3.70;;
65757;SDS011;52495;52.208;5.158;2023-05-07T13:02:34;6.75;;;3.53;;
65757;SDS011;52495;52.208;5.158;2023-05-07T13:05:04;7.60;;;3.67;;
65757;SDS011;52495;52.208;5.158;2023-05-07T13:07:31;6.10;;;3.92;;
65757;SDS011;52495;52.208;5.158;2023-05-07T13:09:58;7.25;;;3.83;;
65757;SDS011;52495;52.208;5.158;2023-05-07T13:12:25;5.97;;;3.90;;
65757;SDS011;52495;52.208;5.158;2023-05-07T13:14:53;5.78;;;3.28;;
65757;SDS011;52495;52.208;5.158;2023-05-07T13:17:19;8.30;;;3.20;;
65757;SDS011;52495;52.208;5.158;2023-05-07T13:19:46;5.93;;;3.35;;
65757;SDS011;52495;52.208;5.158;2023-05-07T13:22:13;7.03;;;3.50;;
65757;SDS011;52495;52.208;5.158;2023-05-07T13:24:40;8.00;;;3.67;;
65757;SDS011;52495;52.208;5.158;2023-05-07T13:27:08;6.72;;;3.55;;
65757;SDS011;52495;52.208;5.158;2023-05-07T13:29:38;8.52;;;4.20;;
65757;SDS011;52495;52.208;5.158;2023-05-07T13:32:06;6.25;;;3.50;;
65757;SDS011;52495;52.208;5.158;2023-05-07T13:34:33;5.57;;;3.70;;
65757;SDS011;52495;52.208;5.158;2023-05-07T13:37:00;8.65;;;5.35;;
65757;SDS011;52495;52.208;5.158;2023-05-07T13:39:27;6.35;;;4.20;;
65757;SDS011;52495;52.208;5.158;2023-05-07T13:41:54;8.90;;;6.20;;
65757;SDS011;52495;52.208;5.158;2023-05-07T13:44:20;7.18;;;5.55;;
65757;SDS011;52495;52.208;5.158;2023-05-07T13:46:47;11.25;;;6.20;;
65757;SDS011;52495;52.208;5.158;2023-05-07T13:49:16;7.38;;;4.85;;
65757;SDS011;52495;52.208;5.158;2023-05-07T13:51:43;8.65;;;6.40;;
65757;SDS011;52495;52.208;5.158;2023-05-07T13:54:10;13.65;;;8.43;;
65757;SDS011;52495;52.208;5.158;2023-05-07T13:56:37;9.48;;;8.07;;
65757;SDS011;52495;52.208;5.158;2023-05-07T13:59:04;10.98;;;7.85;;
65757;SDS011;52495;52.208;5.158;2023-05-07T14:01:31;9.02;;;6.25;;
65757;SDS011;52495;52.208;5.158;2023-05-07T14:03:57;10.18;;;7.05;;
65757;SDS011;52495;52.208;5.158;2023-05-07T14:06:26;9.10;;;6.75;;
65757;SDS011;52495;52.208;5.158;2023-05-07T14:08:53;8.98;;;6.28;;
65757;SDS011;52495;52.208;5.158;2023-05-07T14:11:20;10.30;;;7.95;;
65757;SDS011;52495;52.208;5.158;2023-05-07T14:13:47;10.38;;;7.82;;
65757;SDS011;52495;52.208;5.158;2023-05-07T14:16:14;9.57;;;6.93;;
65757;SDS011;52495;52.208;5.158;2023-05-07T14:18:41;7.60;;;5.15;;
65757;SDS011;52495;52.208;5.158;2023-05-07T14:21:08;7.13;;;5.63;;
65757;SDS011;52495;52.208;5.158;2023-05-07T14:23:36;11.23;;;7.18;;
65757;SDS011;52495;52.208;5.158;2023-05-07T14:26:03;12.30;;;6.70;;
65757;SDS011;52495;52.208;5.158;2023-05-07T14:28:30;10.90;;;7.55;;
65757;SDS011;52495;52.208;5.158;2023-05-07T14:30:57;15.88;;;8.90;;
65757;SDS011;52495;52.208;5.158;2023-05-07T14:33:24;13.80;;;7.15;;
65757;SDS011;52495;52.208;5.158;2023-05-07T14:35:51;11.73;;;5.47;;
65757;SDS011;52495;52.208;5.158;2023-05-07T14:38:18;6.97;;;3.92;;
65757;SDS011;52495;52.208;5.158;2023-05-07T14:40:47;11.38;;;4.07;;
65757;SDS011;52495;52.208;5.158;2023-05-07T14:43:13;7.35;;;2.88;;
65757;SDS011;52495;52.208;5.158;2023-05-07T14:45:40;7.38;;;3.03;;
65757;SDS011;52495;52.208;5.158;2023-05-07T14:48:07;8.35;;;3.30;;